sensor_id;sensor_type;location;lat;lon;timestamp;temperature;humidity
49855;DHT22;35752;52.164;21.244;2022-10-18T00:01:25;13.20;99.90
49855;DHT22;35752;52.164;21.244;2022-10-18T00:03:50;13.20;99.90
49855;DHT22;35752;52.164;21.244;2022-10-18T00:06:16;13.10;99.90
49855;DHT22;35752;52.164;21.244;2022-10-18T00:08:42;13.10;99.90
49855;DHT22;35752;52.164;21.244;2022-10-18T00:11:07;13.10;99.90
49855;DHT22;35752;52.164;21.244;2022-10-18T00:13:33;13.10;99.90
49855;DHT22;35752;52.164;21.244;2022-10-18T00:16:01;13.00;99.90
49855;DHT22;35752;52.164;21.244;2022-10-18T00:18:33;13.00;99.90
49855;DHT22;35752;52.164;21.244;2022-10-18T00:20:59;13.00;99.90
49855;DHT22;35752;52.164;21.244;2022-10-18T00:23:25;13.00;99.90
49855;DHT22;35752;52.164;21.244;2022-10-18T00:26:26;13.00;99.90
49855;DHT22;35752;52.164;21.244;2022-10-18T00:28:43;13.00;99.90
49855;DHT22;35752;52.164;21.244;2022-10-18T00:33:34;12.90;99.90
49855;DHT22;35752;52.164;21.244;2022-10-18T00:36:02;12.80;99.90
49855;DHT22;35752;52.164;21.244;2022-10-18T00:38:28;12.80;99.90
49855;DHT22;35752;52.164;21.244;2022-10-18T00:40:53;12.90;99.90
49855;DHT22;35752;52.164;21.244;2022-10-18T00:43:19;12.90;99.90
49855;DHT22;35752;52.164;21.244;2022-10-18T00:45:44;12.90;99.90
49855;DHT22;35752;52.164;21.244;2022-10-18T00:48:10;12.90;99.90
49855;DHT22;35752;52.164;21.244;2022-10-18T00:50:37;12.90;99.90
49855;DHT22;35752;52.164;21.244;2022-10-18T00:53:05;12.80;99.90
49855;DHT22;35752;52.164;21.244;2022-10-18T00:55:31;12.80;99.90
49855;DHT22;35752;52.164;21.244;2022-10-18T00:57:58;12.70;99.90
49855;DHT22;35752;52.164;21.244;2022-10-18T01:00:24;12.70;99.90
49855;DHT22;35752;52.164;21.244;2022-10-18T01:02:49;12.70;99.90
49855;DHT22;35752;52.164;21.244;2022-10-18T01:05:15;12.70;99.90
49855;DHT22;35752;52.164;21.244;2022-10-18T01:13:06;12.70;99.90
49855;DHT22;35752;52.164;21.244;2022-10-18T01:15:41;12.60;99.90
49855;DHT22;35752;52.164;21.244;2022-10-18T01:18:21;12.70;99.90
49855;DHT22;35752;52.164;21.244;2022-10-18T01:23:32;12.70;99.90
49855;DHT22;35752;52.164;21.244;2022-10-18T01:33:46;12.60;99.90
49855;DHT22;35752;52.164;21.244;2022-10-18T01:36:20;12.60;99.90
49855;DHT22;35752;52.164;21.244;2022-10-18T01:38:48;12.60;99.90
49855;DHT22;35752;52.164;21.244;2022-10-18T01:41:15;12.60;99.90
49855;DHT22;35752;52.164;21.244;2022-10-18T01:43:43;12.60;99.90
49855;DHT22;35752;52.164;21.244;2022-10-18T01:46:10;12.50;99.90
49855;DHT22;35752;52.164;21.244;2022-10-18T01:48:39;12.50;99.90
49855;DHT22;35752;52.164;21.244;2022-10-18T01:51:04;12.50;99.90
49855;DHT22;35752;52.164;21.244;2022-10-18T01:53:31;12.50;99.90
49855;DHT22;35752;52.164;21.244;2022-10-18T01:56:04;12.50;99.90
49855;DHT22;35752;52.164;21.244;2022-10-18T01:58:35;12.50;99.90
49855;DHT22;35752;52.164;21.244;2022-10-18T02:01:09;12.40;99.90
49855;DHT22;35752;52.164;21.244;2022-10-18T02:03:36;12.40;99.90
49855;DHT22;35752;52.164;21.244;2022-10-18T02:06:09;12.50;99.90
49855;DHT22;35752;52.164;21.244;2022-10-18T02:11:13;12.40;99.90
49855;DHT22;35752;52.164;21.244;2022-10-18T02:13:49;12.40;99.90
49855;DHT22;35752;52.164;21.244;2022-10-18T02:19:02;12.30;99.90
49855;DHT22;35752;52.164;21.244;2022-10-18T02:21:29;12.30;99.90
49855;DHT22;35752;52.164;21.244;2022-10-18T02:23:55;12.30;99.90
49855;DHT22;35752;52.164;21.244;2022-10-18T02:26:21;12.30;99.90
49855;DHT22;35752;52.164;21.244;2022-10-18T02:28:47;12.30;99.90
49855;DHT22;35752;52.164;21.244;2022-10-18T02:31:20;12.30;99.90
49855;DHT22;35752;52.164;21.244;2022-10-18T02:38:55;12.20;99.90
49855;DHT22;35752;52.164;21.244;2022-10-18T02:41:23;12.20;99.90
49855;DHT22;35752;52.164;21.244;2022-10-18T02:43:49;12.10;99.90
49855;DHT22;35752;52.164;21.244;2022-10-18T02:46:14;12.20;99.90
49855;DHT22;35752;52.164;21.244;2022-10-18T02:48:40;12.20;99.90
49855;DHT22;35752;52.164;21.244;2022-10-18T02:51:05;12.10;99.90
49855;DHT22;35752;52.164;21.244;2022-10-18T02:53:31;12.10;99.90
49855;DHT22;35752;52.164;21.244;2022-10-18T02:55:56;12.10;99.90
49855;DHT22;35752;52.164;21.244;2022-10-18T02:58:22;12.00;99.90
49855;DHT22;35752;52.164;21.244;2022-10-18T03:00:50;12.00;99.90
49855;DHT22;35752;52.164;21.244;2022-10-18T03:03:16;12.00;99.90
49855;DHT22;35752;52.164;21.244;2022-10-18T03:05:41;11.90;99.90
49855;DHT22;35752;52.164;21.244;2022-10-18T03:08:07;11.90;99.90
49855;DHT22;35752;52.164;21.244;2022-10-18T03:10:32;11.90;99.90
49855;DHT22;35752;52.164;21.244;2022-10-18T03:12:58;11.90;99.90
49855;DHT22;35752;52.164;21.244;2022-10-18T03:15:24;11.80;99.90
49855;DHT22;35752;52.164;21.244;2022-10-18T03:17:49;11.80;99.90
49855;DHT22;35752;52.164;21.244;2022-10-18T03:20:15;11.80;99.90
49855;DHT22;35752;52.164;21.244;2022-10-18T03:22:40;11.80;99.90
49855;DHT22;35752;52.164;21.244;2022-10-18T03:25:06;11.80;99.90
49855;DHT22;35752;52.164;21.244;2022-10-18T03:27:31;11.80;99.90
49855;DHT22;35752;52.164;21.244;2022-10-18T03:29:57;11.70;99.90
49855;DHT22;35752;52.164;21.244;2022-10-18T03:32:23;11.70;99.90
49855;DHT22;35752;52.164;21.244;2022-10-18T03:34:49;11.70;99.90
49855;DHT22;35752;52.164;21.244;2022-10-18T03:37:14;11.60;99.90
49855;DHT22;35752;52.164;21.244;2022-10-18T03:39:40;11.60;99.90
49855;DHT22;35752;52.164;21.244;2022-10-18T03:42:05;11.60;99.90
49855;DHT22;35752;52.164;21.244;2022-10-18T03:44:31;11.60;99.90
49855;DHT22;35752;52.164;21.244;2022-10-18T03:46:56;11.60;99.90
49855;DHT22;35752;52.164;21.244;2022-10-18T03:49:22;11.50;99.90
49855;DHT22;35752;52.164;21.244;2022-10-18T03:51:47;11.50;99.90
49855;DHT22;35752;52.164;21.244;2022-10-18T03:54:13;11.50;99.90
49855;DHT22;35752;52.164;21.244;2022-10-18T03:56:38;11.50;99.90
49855;DHT22;35752;52.164;21.244;2022-10-18T03:59:04;11.50;99.90
49855;DHT22;35752;52.164;21.244;2022-10-18T04:01:29;11.50;99.90
49855;DHT22;35752;52.164;21.244;2022-10-18T04:03:55;11.40;99.90
49855;DHT22;35752;52.164;21.244;2022-10-18T04:06:20;11.50;99.90
49855;DHT22;35752;52.164;21.244;2022-10-18T04:08:46;11.40;99.90
49855;DHT22;35752;52.164;21.244;2022-10-18T04:11:11;11.40;99.90
49855;DHT22;35752;52.164;21.244;2022-10-18T04:13:39;11.40;99.90
49855;DHT22;35752;52.164;21.244;2022-10-18T04:16:05;11.40;99.90
49855;DHT22;35752;52.164;21.244;2022-10-18T04:18:31;11.40;99.90
49855;DHT22;35752;52.164;21.244;2022-10-18T04:20:56;11.30;99.90
49855;DHT22;35752;52.164;21.244;2022-10-18T04:23:22;11.30;99.90
49855;DHT22;35752;52.164;21.244;2022-10-18T04:25:47;11.30;99.90
49855;DHT22;35752;52.164;21.244;2022-10-18T04:28:13;11.20;99.90
49855;DHT22;35752;52.164;21.244;2022-10-18T04:30:38;11.20;99.90
49855;DHT22;35752;52.164;21.244;2022-10-18T04:33:04;11.20;99.90
49855;DHT22;35752;52.164;21.244;2022-10-18T04:35:29;11.20;99.90
49855;DHT22;35752;52.164;21.244;2022-10-18T04:37:55;11.10;99.90
49855;DHT22;35752;52.164;21.244;2022-10-18T04:40:20;11.10;99.90
49855;DHT22;35752;52.164;21.244;2022-10-18T04:42:46;11.10;99.90
49855;DHT22;35752;52.164;21.244;2022-10-18T04:45:12;11.10;99.90
49855;DHT22;35752;52.164;21.244;2022-10-18T04:47:37;11.00;99.90
49855;DHT22;35752;52.164;21.244;2022-10-18T04:50:03;11.00;99.90
49855;DHT22;35752;52.164;21.244;2022-10-18T04:52:29;11.00;99.90
49855;DHT22;35752;52.164;21.244;2022-10-18T04:54:54;11.00;99.90
49855;DHT22;35752;52.164;21.244;2022-10-18T04:57:20;11.00;99.90
49855;DHT22;35752;52.164;21.244;2022-10-18T04:59:46;11.00;99.90
49855;DHT22;35752;52.164;21.244;2022-10-18T05:02:11;11.00;99.90
49855;DHT22;35752;52.164;21.244;2022-10-18T05:04:37;11.00;99.90
49855;DHT22;35752;52.164;21.244;2022-10-18T05:07:02;11.00;99.90
49855;DHT22;35752;52.164;21.244;2022-10-18T05:09:30;11.00;99.90
49855;DHT22;35752;52.164;21.244;2022-10-18T05:11:55;11.00;99.90
49855;DHT22;35752;52.164;21.244;2022-10-18T05:14:21;11.00;99.90
49855;DHT22;35752;52.164;21.244;2022-10-18T05:16:46;11.00;99.90
49855;DHT22;35752;52.164;21.244;2022-10-18T05:19:12;11.10;99.90
49855;DHT22;35752;52.164;21.244;2022-10-18T05:21:37;11.00;99.90
49855;DHT22;35752;52.164;21.244;2022-10-18T05:24:03;11.10;99.90
49855;DHT22;35752;52.164;21.244;2022-10-18T05:26:28;11.00;99.90
49855;DHT22;35752;52.164;21.244;2022-10-18T05:28:54;11.00;99.90
49855;DHT22;35752;52.164;21.244;2022-10-18T05:31:20;11.10;99.90
49855;DHT22;35752;52.164;21.244;2022-10-18T05:33:45;11.10;99.90
49855;DHT22;35752;52.164;21.244;2022-10-18T05:36:11;11.10;99.90
49855;DHT22;35752;52.164;21.244;2022-10-18T05:38:37;11.10;99.90
49855;DHT22;35752;52.164;21.244;2022-10-18T05:41:03;11.00;99.90
49855;DHT22;35752;52.164;21.244;2022-10-18T05:43:28;11.00;99.90
49855;DHT22;35752;52.164;21.244;2022-10-18T05:45:54;11.00;99.90
49855;DHT22;35752;52.164;21.244;2022-10-18T05:48:20;11.00;99.90
49855;DHT22;35752;52.164;21.244;2022-10-18T05:50:45;11.10;99.90
49855;DHT22;35752;52.164;21.244;2022-10-18T05:53:11;11.10;99.90
49855;DHT22;35752;52.164;21.244;2022-10-18T05:55:36;11.20;99.90
49855;DHT22;35752;52.164;21.244;2022-10-18T05:58:02;11.20;99.90
49855;DHT22;35752;52.164;21.244;2022-10-18T06:00:28;11.20;99.90
49855;DHT22;35752;52.164;21.244;2022-10-18T06:02:54;11.20;99.90
49855;DHT22;35752;52.164;21.244;2022-10-18T06:05:20;11.30;99.90
49855;DHT22;35752;52.164;21.244;2022-10-18T06:07:45;11.30;99.90
49855;DHT22;35752;52.164;21.244;2022-10-18T06:10:11;11.40;99.90
49855;DHT22;35752;52.164;21.244;2022-10-18T06:12:36;11.40;99.90
49855;DHT22;35752;52.164;21.244;2022-10-18T06:15:02;11.50;99.90
49855;DHT22;35752;52.164;21.244;2022-10-18T06:17:28;11.60;99.90
49855;DHT22;35752;52.164;21.244;2022-10-18T06:19:53;11.70;99.90
49855;DHT22;35752;52.164;21.244;2022-10-18T06:22:19;11.80;99.90
49855;DHT22;35752;52.164;21.244;2022-10-18T06:24:44;11.90;99.90
49855;DHT22;35752;52.164;21.244;2022-10-18T06:27:10;12.00;99.90
49855;DHT22;35752;52.164;21.244;2022-10-18T06:29:36;12.20;99.90
49855;DHT22;35752;52.164;21.244;2022-10-18T06:32:02;12.30;99.90
49855;DHT22;35752;52.164;21.244;2022-10-18T06:34:27;12.40;99.90
49855;DHT22;35752;52.164;21.244;2022-10-18T06:36:53;12.50;99.90
49855;DHT22;35752;52.164;21.244;2022-10-18T06:39:18;12.60;99.90
49855;DHT22;35752;52.164;21.244;2022-10-18T06:41:44;12.70;99.90
49855;DHT22;35752;52.164;21.244;2022-10-18T06:44:09;12.80;99.90
49855;DHT22;35752;52.164;21.244;2022-10-18T06:46:39;12.80;99.90
49855;DHT22;35752;52.164;21.244;2022-10-18T06:49:05;13.00;99.90
49855;DHT22;35752;52.164;21.244;2022-10-18T06:51:31;13.10;99.90
49855;DHT22;35752;52.164;21.244;2022-10-18T06:53:56;13.20;99.90
49855;DHT22;35752;52.164;21.244;2022-10-18T06:56:22;13.30;99.90
49855;DHT22;35752;52.164;21.244;2022-10-18T06:58:47;13.40;99.90
49855;DHT22;35752;52.164;21.244;2022-10-18T07:01:13;13.60;99.90
49855;DHT22;35752;52.164;21.244;2022-10-18T07:03:43;13.60;99.90
49855;DHT22;35752;52.164;21.244;2022-10-18T07:06:09;13.70;99.90
49855;DHT22;35752;52.164;21.244;2022-10-18T07:08:35;13.70;99.90
49855;DHT22;35752;52.164;21.244;2022-10-18T07:11:00;13.80;99.90
49855;DHT22;35752;52.164;21.244;2022-10-18T07:13:27;13.90;99.90
49855;DHT22;35752;52.164;21.244;2022-10-18T07:16:06;14.00;99.90
49855;DHT22;35752;52.164;21.244;2022-10-18T07:18:32;14.10;99.90
49855;DHT22;35752;52.164;21.244;2022-10-18T07:21:05;14.10;99.90
49855;DHT22;35752;52.164;21.244;2022-10-18T07:23:32;14.10;99.90
49855;DHT22;35752;52.164;21.244;2022-10-18T07:25:58;14.20;99.90
49855;DHT22;35752;52.164;21.244;2022-10-18T07:28:24;14.30;99.90
49855;DHT22;35752;52.164;21.244;2022-10-18T07:30:49;14.30;99.90
49855;DHT22;35752;52.164;21.244;2022-10-18T07:33:15;14.40;99.90
49855;DHT22;35752;52.164;21.244;2022-10-18T07:35:40;14.50;99.90
49855;DHT22;35752;52.164;21.244;2022-10-18T07:38:06;14.60;99.90
49855;DHT22;35752;52.164;21.244;2022-10-18T07:40:31;14.60;99.90
49855;DHT22;35752;52.164;21.244;2022-10-18T07:42:57;14.70;99.90
49855;DHT22;35752;52.164;21.244;2022-10-18T07:45:22;14.70;99.90
49855;DHT22;35752;52.164;21.244;2022-10-18T07:47:52;14.60;99.90
49855;DHT22;35752;52.164;21.244;2022-10-18T07:50:18;14.70;99.90
49855;DHT22;35752;52.164;21.244;2022-10-18T07:52:43;14.70;99.90
49855;DHT22;35752;52.164;21.244;2022-10-18T07:55:09;14.80;99.90
49855;DHT22;35752;52.164;21.244;2022-10-18T07:57:34;14.80;99.90
49855;DHT22;35752;52.164;21.244;2022-10-18T08:00:00;14.90;99.90
49855;DHT22;35752;52.164;21.244;2022-10-18T08:02:25;14.90;99.90
49855;DHT22;35752;52.164;21.244;2022-10-18T08:04:51;15.00;99.90
49855;DHT22;35752;52.164;21.244;2022-10-18T08:07:17;15.10;99.90
49855;DHT22;35752;52.164;21.244;2022-10-18T08:09:42;15.10;99.90
49855;DHT22;35752;52.164;21.244;2022-10-18T08:12:08;15.20;99.90
49855;DHT22;35752;52.164;21.244;2022-10-18T08:14:33;15.30;99.90
49855;DHT22;35752;52.164;21.244;2022-10-18T08:16:59;15.30;99.90
49855;DHT22;35752;52.164;21.244;2022-10-18T08:19:24;15.40;99.90
49855;DHT22;35752;52.164;21.244;2022-10-18T08:21:50;15.50;99.90
49855;DHT22;35752;52.164;21.244;2022-10-18T08:24:15;15.60;99.90
49855;DHT22;35752;52.164;21.244;2022-10-18T08:26:41;15.70;99.90
49855;DHT22;35752;52.164;21.244;2022-10-18T08:29:06;15.70;99.90
49855;DHT22;35752;52.164;21.244;2022-10-18T08:31:32;15.80;99.90
49855;DHT22;35752;52.164;21.244;2022-10-18T08:33:57;15.80;99.90
49855;DHT22;35752;52.164;21.244;2022-10-18T08:36:24;15.80;99.90
49855;DHT22;35752;52.164;21.244;2022-10-18T08:38:50;15.90;99.90
49855;DHT22;35752;52.164;21.244;2022-10-18T08:46:46;16.00;99.90
49855;DHT22;35752;52.164;21.244;2022-10-18T08:49:16;16.10;99.90
49855;DHT22;35752;52.164;21.244;2022-10-18T08:51:46;16.10;99.90
49855;DHT22;35752;52.164;21.244;2022-10-18T08:54:13;16.00;99.90
49855;DHT22;35752;52.164;21.244;2022-10-18T08:56:40;16.10;99.90
49855;DHT22;35752;52.164;21.244;2022-10-18T08:59:10;16.30;99.90
49855;DHT22;35752;52.164;21.244;2022-10-18T09:06:49;16.50;99.90
49855;DHT22;35752;52.164;21.244;2022-10-18T09:09:34;16.70;99.90
49855;DHT22;35752;52.164;21.244;2022-10-18T09:19:54;17.00;99.90
49855;DHT22;35752;52.164;21.244;2022-10-18T09:25:16;17.20;99.90
49855;DHT22;35752;52.164;21.244;2022-10-18T09:27:52;17.30;99.90
49855;DHT22;35752;52.164;21.244;2022-10-18T09:32:54;17.20;99.90
49855;DHT22;35752;52.164;21.244;2022-10-18T09:35:26;17.30;99.90
49855;DHT22;35752;52.164;21.244;2022-10-18T09:37:52;17.30;99.90
49855;DHT22;35752;52.164;21.244;2022-10-18T09:40:26;17.40;99.90
49855;DHT22;35752;52.164;21.244;2022-10-18T09:43:06;17.50;99.90
49855;DHT22;35752;52.164;21.244;2022-10-18T09:45:37;17.50;99.90
49855;DHT22;35752;52.164;21.244;2022-10-18T09:50:37;17.70;99.90
49855;DHT22;35752;52.164;21.244;2022-10-18T09:53:07;17.70;99.90
49855;DHT22;35752;52.164;21.244;2022-10-18T09:58:14;17.80;99.90
49855;DHT22;35752;52.164;21.244;2022-10-18T10:00:46;17.80;99.90
49855;DHT22;35752;52.164;21.244;2022-10-18T10:03:13;17.90;99.90
49855;DHT22;35752;52.164;21.244;2022-10-18T10:05:42;17.90;99.90
49855;DHT22;35752;52.164;21.244;2022-10-18T10:08:08;17.80;99.90
49855;DHT22;35752;52.164;21.244;2022-10-18T10:10:33;18.00;99.90
49855;DHT22;35752;52.164;21.244;2022-10-18T10:15:28;18.00;99.90
49855;DHT22;35752;52.164;21.244;2022-10-18T10:20:33;18.00;99.90
49855;DHT22;35752;52.164;21.244;2022-10-18T10:25:55;17.90;99.90
49855;DHT22;35752;52.164;21.244;2022-10-18T10:28:22;17.90;99.90
49855;DHT22;35752;52.164;21.244;2022-10-18T10:30:48;17.90;99.90
49855;DHT22;35752;52.164;21.244;2022-10-18T10:33:29;18.00;99.90
49855;DHT22;35752;52.164;21.244;2022-10-18T10:35:58;18.10;99.90
49855;DHT22;35752;52.164;21.244;2022-10-18T10:38:24;18.10;99.90
49855;DHT22;35752;52.164;21.244;2022-10-18T10:40:50;18.20;99.90
49855;DHT22;35752;52.164;21.244;2022-10-18T10:43:37;18.40;99.90
49855;DHT22;35752;52.164;21.244;2022-10-18T10:48:31;18.60;99.90
49855;DHT22;35752;52.164;21.244;2022-10-18T10:53:31;18.90;99.90
49855;DHT22;35752;52.164;21.244;2022-10-18T10:55:57;19.10;99.90
49855;DHT22;35752;52.164;21.244;2022-10-18T10:58:23;19.10;99.90
49855;DHT22;35752;52.164;21.244;2022-10-18T11:00:50;19.10;99.90
49855;DHT22;35752;52.164;21.244;2022-10-18T11:03:20;19.20;99.90
49855;DHT22;35752;52.164;21.244;2022-10-18T11:05:54;19.40;99.90
49855;DHT22;35752;52.164;21.244;2022-10-18T11:08:21;19.60;99.90
49855;DHT22;35752;52.164;21.244;2022-10-18T11:10:55;19.70;99.90
49855;DHT22;35752;52.164;21.244;2022-10-18T11:13:37;19.60;99.90
49855;DHT22;35752;52.164;21.244;2022-10-18T11:16:22;19.70;99.90
49855;DHT22;35752;52.164;21.244;2022-10-18T11:18:49;19.80;99.90
49855;DHT22;35752;52.164;21.244;2022-10-18T11:21:16;19.80;99.90
49855;DHT22;35752;52.164;21.244;2022-10-18T11:23:43;19.80;99.90
49855;DHT22;35752;52.164;21.244;2022-10-18T11:35:54;19.80;99.90
49855;DHT22;35752;52.164;21.244;2022-10-18T11:40:57;19.90;99.90
49855;DHT22;35752;52.164;21.244;2022-10-18T11:43:36;19.90;99.90
49855;DHT22;35752;52.164;21.244;2022-10-18T11:46:12;19.80;99.90
49855;DHT22;35752;52.164;21.244;2022-10-18T11:51:17;19.90;99.90
49855;DHT22;35752;52.164;21.244;2022-10-18T11:56:21;19.90;99.90
49855;DHT22;35752;52.164;21.244;2022-10-18T12:01:24;19.70;99.90
49855;DHT22;35752;52.164;21.244;2022-10-18T12:04:07;19.70;99.90
49855;DHT22;35752;52.164;21.244;2022-10-18T12:06:36;19.70;99.90
49855;DHT22;35752;52.164;21.244;2022-10-18T12:11:47;19.70;99.90
49855;DHT22;35752;52.164;21.244;2022-10-18T12:17:02;19.80;99.90
49855;DHT22;35752;52.164;21.244;2022-10-18T12:19:28;19.80;99.90
49855;DHT22;35752;52.164;21.244;2022-10-18T12:21:55;19.90;99.90
49855;DHT22;35752;52.164;21.244;2022-10-18T12:24:24;20.00;99.90
49855;DHT22;35752;52.164;21.244;2022-10-18T12:26:50;20.00;99.90
49855;DHT22;35752;52.164;21.244;2022-10-18T12:32:05;20.10;99.90
49855;DHT22;35752;52.164;21.244;2022-10-18T12:34:33;19.90;99.90
49855;DHT22;35752;52.164;21.244;2022-10-18T12:39:29;20.10;99.90
49855;DHT22;35752;52.164;21.244;2022-10-18T12:41:56;20.10;99.90
49855;DHT22;35752;52.164;21.244;2022-10-18T12:44:32;20.00;99.90
49855;DHT22;35752;52.164;21.244;2022-10-18T12:46:59;20.20;99.90
49855;DHT22;35752;52.164;21.244;2022-10-18T12:49:29;20.10;99.90
49855;DHT22;35752;52.164;21.244;2022-10-18T12:51:56;20.00;99.90
49855;DHT22;35752;52.164;21.244;2022-10-18T12:54:37;19.90;99.90
49855;DHT22;35752;52.164;21.244;2022-10-18T12:57:16;19.90;99.90
49855;DHT22;35752;52.164;21.244;2022-10-18T12:59:42;20.00;99.90
49855;DHT22;35752;52.164;21.244;2022-10-18T13:02:08;20.10;99.90
49855;DHT22;35752;52.164;21.244;2022-10-18T13:04:33;20.10;99.90
49855;DHT22;35752;52.164;21.244;2022-10-18T13:09:25;20.00;99.90
49855;DHT22;35752;52.164;21.244;2022-10-18T13:11:59;20.00;99.90
49855;DHT22;35752;52.164;21.244;2022-10-18T13:33:30;19.50;99.90
49855;DHT22;35752;52.164;21.244;2022-10-18T13:41:30;19.30;99.90
49855;DHT22;35752;52.164;21.244;2022-10-18T13:51:53;19.30;99.90
49855;DHT22;35752;52.164;21.244;2022-10-18T13:56:55;19.30;99.90
49855;DHT22;35752;52.164;21.244;2022-10-18T14:07:17;19.20;99.90
49855;DHT22;35752;52.164;21.244;2022-10-18T14:09:47;19.20;99.90
49855;DHT22;35752;52.164;21.244;2022-10-18T14:19:38;19.10;99.90
49855;DHT22;35752;52.164;21.244;2022-10-18T14:22:10;19.10;99.90
49855;DHT22;35752;52.164;21.244;2022-10-18T14:24:39;19.10;99.90
49855;DHT22;35752;52.164;21.244;2022-10-18T14:29:45;19.00;99.90
49855;DHT22;35752;52.164;21.244;2022-10-18T14:32:21;19.00;99.90
49855;DHT22;35752;52.164;21.244;2022-10-18T14:34:47;19.00;99.90
49855;DHT22;35752;52.164;21.244;2022-10-18T14:37:17;19.00;99.90
49855;DHT22;35752;52.164;21.244;2022-10-18T14:39:44;19.00;99.90
49855;DHT22;35752;52.164;21.244;2022-10-18T14:42:16;18.90;99.90
49855;DHT22;35752;52.164;21.244;2022-10-18T14:44:43;18.90;99.90
49855;DHT22;35752;52.164;21.244;2022-10-18T14:47:24;18.90;99.90
49855;DHT22;35752;52.164;21.244;2022-10-18T14:49:50;18.80;99.90
49855;DHT22;35752;52.164;21.244;2022-10-18T14:52:19;18.80;99.90
49855;DHT22;35752;52.164;21.244;2022-10-18T14:54:46;18.70;99.90
49855;DHT22;35752;52.164;21.244;2022-10-18T14:57:18;18.70;99.90
49855;DHT22;35752;52.164;21.244;2022-10-18T14:59:47;18.60;99.90
49855;DHT22;35752;52.164;21.244;2022-10-18T15:02:20;18.60;99.90
49855;DHT22;35752;52.164;21.244;2022-10-18T15:04:52;18.60;99.90
49855;DHT22;35752;52.164;21.244;2022-10-18T15:07:18;18.50;99.90
49855;DHT22;35752;52.164;21.244;2022-10-18T15:09:44;18.40;99.90
49855;DHT22;35752;52.164;21.244;2022-10-18T15:12:11;18.40;99.90
49855;DHT22;35752;52.164;21.244;2022-10-18T15:14:38;18.30;99.90
49855;DHT22;35752;52.164;21.244;2022-10-18T15:17:07;18.30;99.90
49855;DHT22;35752;52.164;21.244;2022-10-18T15:19:36;18.20;99.90
49855;DHT22;35752;52.164;21.244;2022-10-18T15:22:07;18.10;99.90
49855;DHT22;35752;52.164;21.244;2022-10-18T15:24:42;18.00;99.90
49855;DHT22;35752;52.164;21.244;2022-10-18T15:27:28;17.90;99.90
49855;DHT22;35752;52.164;21.244;2022-10-18T15:29:55;17.70;99.90
49855;DHT22;35752;52.164;21.244;2022-10-18T15:32:24;17.60;99.90
49855;DHT22;35752;52.164;21.244;2022-10-18T15:34:51;17.50;99.90
49855;DHT22;35752;52.164;21.244;2022-10-18T15:37:39;17.50;99.90
49855;DHT22;35752;52.164;21.244;2022-10-18T15:40:15;17.40;99.90
49855;DHT22;35752;52.164;21.244;2022-10-18T15:42:41;17.40;99.90
49855;DHT22;35752;52.164;21.244;2022-10-18T15:45:25;17.30;99.90
49855;DHT22;35752;52.164;21.244;2022-10-18T15:53:02;17.00;99.90
49855;DHT22;35752;52.164;21.244;2022-10-18T15:55:52;16.90;99.90
49855;DHT22;35752;52.164;21.244;2022-10-18T15:58:25;16.80;99.90
49855;DHT22;35752;52.164;21.244;2022-10-18T16:00:53;16.70;99.90
49855;DHT22;35752;52.164;21.244;2022-10-18T16:03:20;16.60;99.90
49855;DHT22;35752;52.164;21.244;2022-10-18T16:05:46;16.50;99.90
49855;DHT22;35752;52.164;21.244;2022-10-18T16:08:18;16.50;99.90
49855;DHT22;35752;52.164;21.244;2022-10-18T16:10:43;16.40;99.90
49855;DHT22;35752;52.164;21.244;2022-10-18T16:13:09;16.40;99.90
49855;DHT22;35752;52.164;21.244;2022-10-18T16:15:34;16.40;99.90
49855;DHT22;35752;52.164;21.244;2022-10-18T16:18:00;16.20;99.90
49855;DHT22;35752;52.164;21.244;2022-10-18T16:20:25;16.10;99.90
49855;DHT22;35752;52.164;21.244;2022-10-18T16:22:51;16.00;99.90
49855;DHT22;35752;52.164;21.244;2022-10-18T16:25:16;15.90;99.90
49855;DHT22;35752;52.164;21.244;2022-10-18T16:27:42;15.60;99.90
49855;DHT22;35752;52.164;21.244;2022-10-18T16:30:09;15.40;99.90
49855;DHT22;35752;52.164;21.244;2022-10-18T16:32:36;15.30;99.90
49855;DHT22;35752;52.164;21.244;2022-10-18T16:35:01;15.20;99.90
49855;DHT22;35752;52.164;21.244;2022-10-18T16:37:27;15.10;99.90
49855;DHT22;35752;52.164;21.244;2022-10-18T16:39:52;15.10;99.90
49855;DHT22;35752;52.164;21.244;2022-10-18T16:42:18;15.00;99.90
49855;DHT22;35752;52.164;21.244;2022-10-18T16:44:43;15.00;99.90
49855;DHT22;35752;52.164;21.244;2022-10-18T16:47:09;14.90;99.90
49855;DHT22;35752;52.164;21.244;2022-10-18T16:49:35;14.90;99.90
49855;DHT22;35752;52.164;21.244;2022-10-18T16:52:01;14.90;99.90
49855;DHT22;35752;52.164;21.244;2022-10-18T16:54:26;14.90;99.90
49855;DHT22;35752;52.164;21.244;2022-10-18T16:56:52;14.90;99.90
49855;DHT22;35752;52.164;21.244;2022-10-18T16:59:36;14.80;99.90
49855;DHT22;35752;52.164;21.244;2022-10-18T17:02:01;14.70;99.90
49855;DHT22;35752;52.164;21.244;2022-10-18T17:04:30;14.70;99.90
49855;DHT22;35752;52.164;21.244;2022-10-18T17:06:56;14.70;99.90
49855;DHT22;35752;52.164;21.244;2022-10-18T17:09:21;14.60;99.90
49855;DHT22;35752;52.164;21.244;2022-10-18T17:11:47;14.60;99.90
49855;DHT22;35752;52.164;21.244;2022-10-18T17:14:12;14.60;99.90
49855;DHT22;35752;52.164;21.244;2022-10-18T17:16:38;14.60;99.90
49855;DHT22;35752;52.164;21.244;2022-10-18T17:19:04;14.50;99.90
49855;DHT22;35752;52.164;21.244;2022-10-18T17:21:30;14.50;99.90
49855;DHT22;35752;52.164;21.244;2022-10-18T17:23:57;14.60;99.90
49855;DHT22;35752;52.164;21.244;2022-10-18T17:26:25;14.60;99.90
49855;DHT22;35752;52.164;21.244;2022-10-18T17:28:51;14.60;99.90
49855;DHT22;35752;52.164;21.244;2022-10-18T17:31:17;14.60;99.90
49855;DHT22;35752;52.164;21.244;2022-10-18T17:33:43;14.60;99.90
49855;DHT22;35752;52.164;21.244;2022-10-18T17:36:08;14.50;99.90
49855;DHT22;35752;52.164;21.244;2022-10-18T17:38:34;14.50;99.90
49855;DHT22;35752;52.164;21.244;2022-10-18T17:40:59;14.50;99.90
49855;DHT22;35752;52.164;21.244;2022-10-18T17:43:29;14.50;99.90
49855;DHT22;35752;52.164;21.244;2022-10-18T17:45:55;14.40;99.90
49855;DHT22;35752;52.164;21.244;2022-10-18T17:48:20;14.40;99.90
49855;DHT22;35752;52.164;21.244;2022-10-18T17:50:46;14.40;99.90
49855;DHT22;35752;52.164;21.244;2022-10-18T17:53:11;14.40;99.90
49855;DHT22;35752;52.164;21.244;2022-10-18T17:55:37;14.40;99.90
49855;DHT22;35752;52.164;21.244;2022-10-18T17:58:03;14.40;99.90
49855;DHT22;35752;52.164;21.244;2022-10-18T18:00:29;14.40;99.90